sensor_id;sensor_type;location;lat;lon;timestamp;pressure;altitude;pressure_sealevel;temperature;humidity
46638;BME280;32365;46.938;7.390;2023-03-21T06:38:50;95416.34;;;3.54;90.06
46638;BME280;32365;46.938;7.390;2023-03-21T06:41:16;95417.00;;;3.63;90.37
46638;BME280;32365;46.938;7.390;2023-03-21T06:43:43;95424.94;;;4.18;87.09
46638;BME280;32365;46.938;7.390;2023-03-21T06:46:10;95423.44;;;4.30;85.92
46638;BME280;32365;46.938;7.390;2023-03-21T06:48:37;95419.81;;;4.18;86.36
46638;BME280;32365;46.938;7.390;2023-03-21T06:51:09;95422.06;;;4.28;87.30
46638;BME280;32365;46.938;7.390;2023-03-21T06:53:35;95422.94;;;4.42;87.64
46638;BME280;32365;46.938;7.390;2023-03-21T06:56:04;95418.94;;;4.32;87.58
46638;BME280;32365;46.938;7.390;2023-03-21T06:58:30;95422.84;;;4.57;87.95
46638;BME280;32365;46.938;7.390;2023-03-21T07:00:57;95424.84;;;4.61;86.17
46638;BME280;32365;46.938;7.390;2023-03-21T07:03:24;95419.94;;;4.67;87.28
46638;BME280;32365;46.938;7.390;2023-03-21T07:05:52;95429.31;;;4.88;86.54
46638;BME280;32365;46.938;7.390;2023-03-21T07:08:18;95419.34;;;5.13;85.76
46638;BME280;32365;46.938;7.390;2023-03-21T07:10:45;95422.88;;;5.05;87.23
46638;BME280;32365;46.938;7.390;2023-03-21T07:13:13;95424.56;;;5.33;85.96
46638;BME280;32365;46.938;7.390;2023-03-21T07:15:40;95426.78;;;5.57;84.92
46638;BME280;32365;46.938;7.390;2023-03-21T07:18:08;95422.25;;;5.65;84.85
46638;BME280;32365;46.938;7.390;2023-03-21T07:20:35;95418.38;;;5.14;86.04
46638;BME280;32365;46.938;7.390;2023-03-21T07:23:02;95417.06;;;5.38;86.18
46638;BME280;32365;46.938;7.390;2023-03-21T07:25:29;95417.66;;;5.47;84.93
46638;BME280;32365;46.938;7.390;2023-03-21T07:27:55;95410.28;;;5.99;83.94
46638;BME280;32365;46.938;7.390;2023-03-21T07:30:23;95417.78;;;6.28;83.37
46638;BME280;32365;46.938;7.390;2023-03-21T07:32:50;95414.09;;;6.83;80.76
46638;BME280;32365;46.938;7.390;2023-03-21T07:35:17;95420.44;;;7.32;79.54
46638;BME280;32365;46.938;7.390;2023-03-21T07:37:44;95416.19;;;7.13;77.47
46638;BME280;32365;46.938;7.390;2023-03-21T07:40:11;95422.19;;;6.86;79.48
46638;BME280;32365;46.938;7.390;2023-03-21T07:42:38;95417.00;;;7.06;80.41
46638;BME280;32365;46.938;7.390;2023-03-21T07:45:06;95420.19;;;6.95;79.16
46638;BME280;32365;46.938;7.390;2023-03-21T07:47:34;95421.13;;;7.53;77.13
46638;BME280;32365;46.938;7.390;2023-03-21T07:50:01;95415.25;;;8.28;73.89
46638;BME280;32365;46.938;7.390;2023-03-21T07:52:29;95424.88;;;9.21;69.70
46638;BME280;32365;46.938;7.390;2023-03-21T07:54:55;95426.41;;;9.40;67.29
46638;BME280;32365;46.938;7.390;2023-03-21T07:57:21;95425.28;;;9.36;70.87
46638;BME280;32365;46.938;7.390;2023-03-21T07:59:48;95423.22;;;9.27;70.69
46638;BME280;32365;46.938;7.390;2023-03-21T08:02:15;95422.53;;;9.19;69.78
46638;BME280;32365;46.938;7.390;2023-03-21T08:04:44;95424.75;;;9.46;69.78
46638;BME280;32365;46.938;7.390;2023-03-21T08:07:11;95432.44;;;8.41;71.76
46638;BME280;32365;46.938;7.390;2023-03-21T08:09:37;95428.31;;;8.59;73.79
46638;BME280;32365;46.938;7.390;2023-03-21T08:12:05;95437.16;;;8.88;73.23
46638;BME280;32365;46.938;7.390;2023-03-21T08:14:32;95428.78;;;9.42;70.72
46638;BME280;32365;46.938;7.390;2023-03-21T08:16:59;95436.63;;;9.66;69.22
46638;BME280;32365;46.938;7.390;2023-03-21T08:19:25;95438.31;;;9.72;69.04
46638;BME280;32365;46.938;7.390;2023-03-21T08:21:53;95438.72;;;9.57;67.53
46638;BME280;32365;46.938;7.390;2023-03-21T08:24:20;95438.00;;;9.01;69.08
46638;BME280;32365;46.938;7.390;2023-03-21T08:26:46;95430.56;;;9.42;70.57
46638;BME280;32365;46.938;7.390;2023-03-21T08:29:13;95423.91;;;9.64;68.92
46638;BME280;32365;46.938;7.390;2023-03-21T08:31:39;95425.75;;;10.54;66.62
46638;BME280;32365;46.938;7.390;2023-03-21T08:34:06;95429.81;;;10.73;64.50
46638;BME280;32365;46.938;7.390;2023-03-21T08:36:35;95428.72;;;11.97;60.77
46638;BME280;32365;46.938;7.390;2023-03-21T08:39:04;95430.91;;;14.22;52.26
46638;BME280;32365;46.938;7.390;2023-03-21T08:41:31;95426.84;;;14.74;50.79
46638;BME280;32365;46.938;7.390;2023-03-21T08:43:57;95429.63;;;14.62;50.98
46638;BME280;32365;46.938;7.390;2023-03-21T08:46:24;95435.66;;;14.68;50.17
46638;BME280;32365;46.938;7.390;2023-03-21T08:48:51;95429.41;;;15.22;49.43
46638;BME280;32365;46.938;7.390;2023-03-21T08:51:18;95429.41;;;15.22;49.04
46638;BME280;32365;46.938;7.390;2023-03-21T08:53:45;95428.91;;;15.26;48.25
46638;BME280;32365;46.938;7.390;2023-03-21T08:56:15;95420.72;;;16.48;45.27
46638;BME280;32365;46.938;7.390;2023-03-21T08:58:42;95431.44;;;17.32;42.99
46638;BME280;32365;46.938;7.390;2023-03-21T09:01:08;95420.50;;;14.22;50.74
46638;BME280;32365;46.938;7.390;2023-03-21T09:03:35;95415.22;;;15.97;47.52
46638;BME280;32365;46.938;7.390;2023-03-21T09:06:02;95415.03;;;14.61;51.53
46638;BME280;32365;46.938;7.390;2023-03-21T09:08:29;95415.13;;;14.39;51.40
46638;BME280;32365;46.938;7.390;2023-03-21T09:10:56;95418.63;;;17.31;42.28
46638;BME280;32365;46.938;7.390;2023-03-21T09:13:24;95416.88;;;17.16;44.78
46638;BME280;32365;46.938;7.390;2023-03-21T09:15:51;95419.16;;;18.47;41.30
46638;BME280;32365;46.938;7.390;2023-03-21T09:18:18;95417.53;;;16.61;47.38
46638;BME280;32365;46.938;7.390;2023-03-21T09:21:08;95418.00;;;16.84;44.39
46638;BME280;32365;46.938;7.390;2023-03-21T09:23:37;95417.50;;;18.27;39.52
46638;BME280;32365;46.938;7.390;2023-03-21T09:26:04;95417.59;;;19.62;40.08
46638;BME280;32365;46.938;7.390;2023-03-21T09:28:32;95415.53;;;19.59;37.26
46638;BME280;32365;46.938;7.390;2023-03-21T09:30:59;95417.16;;;21.29;34.74
46638;BME280;32365;46.938;7.390;2023-03-21T09:33:26;95421.63;;;20.12;36.88
46638;BME280;32365;46.938;7.390;2023-03-21T09:35:53;95410.72;;;19.66;36.37
46638;BME280;32365;46.938;7.390;2023-03-21T09:38:21;95415.53;;;20.78;35.63
46638;BME280;32365;46.938;7.390;2023-03-21T09:41:02;95416.66;;;19.91;36.29
46638;BME280;32365;46.938;7.390;2023-03-21T09:43:40;95413.53;;;20.55;35.90
46638;BME280;32365;46.938;7.390;2023-03-21T09:46:19;95413.00;;;21.28;36.29
46638;BME280;32365;46.938;7.390;2023-03-21T09:48:55;95419.06;;;22.56;32.24
46638;BME280;32365;46.938;7.390;2023-03-21T09:51:25;95414.50;;;23.29;31.18
46638;BME280;32365;46.938;7.390;2023-03-21T09:53:54;95405.50;;;20.94;35.35
46638;BME280;32365;46.938;7.390;2023-03-21T09:56:23;95401.91;;;21.03;36.25
46638;BME280;32365;46.938;7.390;2023-03-21T09:58:54;95404.22;;;20.77;36.32
46638;BME280;32365;46.938;7.390;2023-03-21T10:01:25;95402.00;;;19.52;37.42
46638;BME280;32365;46.938;7.390;2023-03-21T10:03:53;95408.59;;;21.97;31.41
46638;BME280;32365;46.938;7.390;2023-03-21T10:06:21;95398.88;;;19.88;35.58
46638;BME280;32365;46.938;7.390;2023-03-21T10:08:54;95398.13;;;21.46;33.56
46638;BME280;32365;46.938;7.390;2023-03-21T10:11:26;95391.19;;;21.50;31.98
46638;BME280;32365;46.938;7.390;2023-03-21T10:13:56;95395.97;;;21.85;31.99
46638;BME280;32365;46.938;7.390;2023-03-21T10:16:25;95391.56;;;20.79;32.36
46638;BME280;32365;46.938;7.390;2023-03-21T10:18:53;95385.44;;;20.23;33.66
46638;BME280;32365;46.938;7.390;2023-03-21T10:21:22;95379.47;;;20.03;34.15
46638;BME280;32365;46.938;7.390;2023-03-21T10:23:50;95381.16;;;20.13;33.84
46638;BME280;32365;46.938;7.390;2023-03-21T10:26:18;95385.03;;;19.63;34.47
46638;BME280;32365;46.938;7.390;2023-03-21T10:28:46;95381.88;;;19.04;35.33
46638;BME280;32365;46.938;7.390;2023-03-21T10:31:17;95380.19;;;19.32;35.25
46638;BME280;32365;46.938;7.390;2023-03-21T10:33:47;95370.75;;;19.50;36.42
46638;BME280;32365;46.938;7.390;2023-03-21T10:36:16;95364.03;;;19.63;35.01
46638;BME280;32365;46.938;7.390;2023-03-21T10:38:45;95363.22;;;19.63;34.54
46638;BME280;32365;46.938;7.390;2023-03-21T10:41:13;95357.81;;;19.73;34.91
46638;BME280;32365;46.938;7.390;2023-03-21T10:43:41;95353.56;;;20.57;35.95
46638;BME280;32365;46.938;7.390;2023-03-21T10:46:11;95358.50;;;21.51;33.11
46638;BME280;32365;46.938;7.390;2023-03-21T10:48:41;95360.41;;;20.86;33.62
46638;BME280;32365;46.938;7.390;2023-03-21T10:51:14;95353.72;;;21.53;33.93
46638;BME280;32365;46.938;7.390;2023-03-21T10:53:45;95352.31;;;21.33;33.71
46638;BME280;32365;46.938;7.390;2023-03-21T10:56:15;95353.34;;;21.83;33.32
46638;BME280;32365;46.938;7.390;2023-03-21T10:58:44;95361.78;;;22.48;32.70
46638;BME280;32365;46.938;7.390;2023-03-21T11:01:13;95345.72;;;21.22;33.82
46638;BME280;32365;46.938;7.390;2023-03-21T11:03:44;95349.69;;;22.47;32.09
46638;BME280;32365;46.938;7.390;2023-03-21T11:06:15;95349.03;;;21.64;34.73
46638;BME280;32365;46.938;7.390;2023-03-21T11:08:45;95338.72;;;21.17;36.31
46638;BME280;32365;46.938;7.390;2023-03-21T11:11:19;95347.19;;;21.28;36.13
46638;BME280;32365;46.938;7.390;2023-03-21T11:13:55;95352.50;;;21.96;33.47
46638;BME280;32365;46.938;7.390;2023-03-21T11:16:24;95348.63;;;22.03;33.92
46638;BME280;32365;46.938;7.390;2023-03-21T11:18:58;95342.47;;;22.39;32.36
46638;BME280;32365;46.938;7.390;2023-03-21T11:21:25;95336.16;;;21.26;36.23
46638;BME280;32365;46.938;7.390;2023-03-21T11:23:54;95340.88;;;20.59;35.25
46638;BME280;32365;46.938;7.390;2023-03-21T11:26:26;95345.19;;;22.25;33.69
46638;BME280;32365;46.938;7.390;2023-03-21T11:28:53;95335.50;;;20.65;35.32
46638;BME280;32365;46.938;7.390;2023-03-21T11:31:21;95349.06;;;21.73;34.14
46638;BME280;32365;46.938;7.390;2023-03-21T11:33:51;95338.50;;;22.99;32.10
46638;BME280;32365;46.938;7.390;2023-03-21T11:36:32;95331.81;;;20.66;36.58
46638;BME280;32365;46.938;7.390;2023-03-21T11:39:11;95329.50;;;20.92;36.64
46638;BME280;32365;46.938;7.390;2023-03-21T11:41:40;95331.56;;;22.00;33.74
46638;BME280;32365;46.938;7.390;2023-03-21T11:44:23;95330.84;;;22.80;32.69
46638;BME280;32365;46.938;7.390;2023-03-21T11:46:51;95320.13;;;22.05;35.05
46638;BME280;32365;46.938;7.390;2023-03-21T11:49:18;95321.22;;;22.93;31.85
46638;BME280;32365;46.938;7.390;2023-03-21T11:51:51;95313.31;;;22.84;32.28
46638;BME280;32365;46.938;7.390;2023-03-21T11:54:23;95310.56;;;21.41;35.21
46638;BME280;32365;46.938;7.390;2023-03-21T11:56:56;95304.16;;;19.79;37.70
46638;BME280;32365;46.938;7.390;2023-03-21T11:59:35;95302.03;;;21.44;35.58
46638;BME280;32365;46.938;7.390;2023-03-21T12:02:20;95297.03;;;19.47;37.57
46638;BME280;32365;46.938;7.390;2023-03-21T12:04:51;95283.56;;;20.98;37.37
46638;BME280;32365;46.938;7.390;2023-03-21T12:07:32;95279.16;;;21.07;34.62
46638;BME280;32365;46.938;7.390;2023-03-21T12:10:20;95282.69;;;21.03;35.04
46638;BME280;32365;46.938;7.390;2023-03-21T12:12:55;95280.31;;;22.06;33.87
46638;BME280;32365;46.938;7.390;2023-03-21T12:15:30;95277.94;;;21.73;34.28
46638;BME280;32365;46.938;7.390;2023-03-21T12:18:05;95277.41;;;21.03;34.09
46638;BME280;32365;46.938;7.390;2023-03-21T12:20:39;95268.13;;;20.69;36.19
46638;BME280;32365;46.938;7.390;2023-03-21T12:23:28;95264.97;;;20.95;35.32
46638;BME280;32365;46.938;7.390;2023-03-21T12:26:11;95257.28;;;21.21;35.38
46638;BME280;32365;46.938;7.390;2023-03-21T12:28:50;95256.75;;;22.10;33.76
46638;BME280;32365;46.938;7.390;2023-03-21T12:31:26;95246.88;;;20.51;37.80
46638;BME280;32365;46.938;7.390;2023-03-21T12:34:04;95243.28;;;21.34;35.28
46638;BME280;32365;46.938;7.390;2023-03-21T12:36:45;95234.06;;;19.61;38.78
46638;BME280;32365;46.938;7.390;2023-03-21T12:39:25;95237.50;;;20.87;36.59
46638;BME280;32365;46.938;7.390;2023-03-21T12:41:59;95227.84;;;18.66;42.05
46638;BME280;32365;46.938;7.390;2023-03-21T12:44:31;95225.94;;;20.74;36.50
46638;BME280;32365;46.938;7.390;2023-03-21T12:47:03;95221.22;;;21.44;35.52
46638;BME280;32365;46.938;7.390;2023-03-21T12:49:34;95220.75;;;22.63;34.79
46638;BME280;32365;46.938;7.390;2023-03-21T12:52:06;95214.72;;;22.54;33.67
46638;BME280;32365;46.938;7.390;2023-03-21T12:54:38;95216.59;;;23.06;33.35
46638;BME280;32365;46.938;7.390;2023-03-21T12:57:09;95206.78;;;23.06;32.88
46638;BME280;32365;46.938;7.390;2023-03-21T12:59:38;95214.88;;;23.10;33.04
46638;BME280;32365;46.938;7.390;2023-03-21T13:02:21;95212.13;;;21.82;35.83
46638;BME280;32365;46.938;7.390;2023-03-21T13:04:55;95216.19;;;21.88;35.40
46638;BME280;32365;46.938;7.390;2023-03-21T13:07:25;95212.69;;;21.47;36.05
46638;BME280;32365;46.938;7.390;2023-03-21T13:09:54;95209.88;;;22.56;33.14
46638;BME280;32365;46.938;7.390;2023-03-21T13:12:34;95212.28;;;20.86;36.80
46638;BME280;32365;46.938;7.390;2023-03-21T13:15:13;95204.94;;;18.91;40.90
46638;BME280;32365;46.938;7.390;2023-03-21T13:17:48;95204.50;;;18.26;43.78
46638;BME280;32365;46.938;7.390;2023-03-21T13:20:23;95205.88;;;20.78;39.29
46638;BME280;32365;46.938;7.390;2023-03-21T13:22:51;95194.09;;;20.98;36.87
46638;BME280;32365;46.938;7.390;2023-03-21T13:25:21;95196.22;;;18.38;44.09
46638;BME280;32365;46.938;7.390;2023-03-21T13:27:52;95204.84;;;20.09;38.78
46638;BME280;32365;46.938;7.390;2023-03-21T13:30:21;95198.31;;;21.53;35.95
46638;BME280;32365;46.938;7.390;2023-03-21T13:32:51;95202.41;;;21.60;35.21
46638;BME280;32365;46.938;7.390;2023-03-21T13:35:22;95193.69;;;22.31;34.73
46638;BME280;32365;46.938;7.390;2023-03-21T13:37:52;95190.47;;;21.94;35.79
46638;BME280;32365;46.938;7.390;2023-03-21T13:40:25;95184.59;;;22.46;33.59
46638;BME280;32365;46.938;7.390;2023-03-21T13:42:54;95185.94;;;20.49;38.27
46638;BME280;32365;46.938;7.390;2023-03-21T13:45:29;95187.34;;;20.83;37.90
46638;BME280;32365;46.938;7.390;2023-03-21T13:47:57;95179.25;;;20.29;38.94
46638;BME280;32365;46.938;7.390;2023-03-21T13:50:32;95171.19;;;20.25;37.89
46638;BME280;32365;46.938;7.390;2023-03-21T13:53:18;95175.91;;;22.54;32.89
46638;BME280;32365;46.938;7.390;2023-03-21T13:55:57;95171.25;;;22.86;31.89
46638;BME280;32365;46.938;7.390;2023-03-21T13:58:32;95172.34;;;22.68;32.60
46638;BME280;32365;46.938;7.390;2023-03-21T14:01:13;95170.59;;;23.42;31.70
46638;BME280;32365;46.938;7.390;2023-03-21T14:03:43;95166.59;;;23.27;32.18
46638;BME280;32365;46.938;7.390;2023-03-21T14:06:10;95162.53;;;22.42;32.47
46638;BME280;32365;46.938;7.390;2023-03-21T14:08:38;95166.97;;;20.89;36.41
46638;BME280;32365;46.938;7.390;2023-03-21T14:11:11;95159.03;;;22.15;34.32
46638;BME280;32365;46.938;7.390;2023-03-21T14:13:41;95162.09;;;23.01;33.43
46638;BME280;32365;46.938;7.390;2023-03-21T14:16:11;95166.66;;;20.90;36.89
46638;BME280;32365;46.938;7.390;2023-03-21T14:18:41;95158.47;;;22.27;34.95
46638;BME280;32365;46.938;7.390;2023-03-21T14:21:14;95155.88;;;22.97;33.88
46638;BME280;32365;46.938;7.390;2023-03-21T14:23:42;95146.72;;;22.68;33.84
46638;BME280;32365;46.938;7.390;2023-03-21T14:26:11;95142.41;;;21.97;37.54
46638;BME280;32365;46.938;7.390;2023-03-21T14:28:44;95144.72;;;21.90;35.53
46638;BME280;32365;46.938;7.390;2023-03-21T14:31:13;95139.59;;;21.84;34.64
46638;BME280;32365;46.938;7.390;2023-03-21T14:33:44;95142.38;;;22.46;33.69
46638;BME280;32365;46.938;7.390;2023-03-21T14:36:15;95144.00;;;20.81;37.58
46638;BME280;32365;46.938;7.390;2023-03-21T14:38:42;95137.84;;;22.38;34.71
46638;BME280;32365;46.938;7.390;2023-03-21T14:41:20;95136.25;;;22.10;36.42
46638;BME280;32365;46.938;7.390;2023-03-21T14:44:00;95134.47;;;22.81;34.26
46638;BME280;32365;46.938;7.390;2023-03-21T14:46:27;95130.91;;;22.42;34.08
46638;BME280;32365;46.938;7.390;2023-03-21T14:48:53;95134.50;;;21.88;35.68
46638;BME280;32365;46.938;7.390;2023-03-21T14:51:28;95142.66;;;20.33;38.38
46638;BME280;32365;46.938;7.390;2023-03-21T14:53:56;95140.38;;;20.40;37.89
46638;BME280;32365;46.938;7.390;2023-03-21T14:56:24;95140.59;;;19.46;40.46
46638;BME280;32365;46.938;7.390;2023-03-21T14:58:51;95132.59;;;19.37;40.70
46638;BME280;32365;46.938;7.390;2023-03-21T15:01:25;95135.03;;;19.33;39.58
46638;BME280;32365;46.938;7.390;2023-03-21T15:03:53;95128.97;;;18.67;41.29
46638;BME280;32365;46.938;7.390;2023-03-21T15:06:19;95128.06;;;18.57;42.05
46638;BME280;32365;46.938;7.390;2023-03-21T15:08:53;95120.84;;;18.49;42.12
46638;BME280;32365;46.938;7.390;2023-03-21T15:11:29;95129.00;;;18.09;43.62
46638;BME280;32365;46.938;7.390;2023-03-21T15:13:59;95132.31;;;18.15;43.48
46638;BME280;32365;46.938;7.390;2023-03-21T15:16:26;95126.59;;;18.13;42.17
46638;BME280;32365;46.938;7.390;2023-03-21T15:18:53;95130.88;;;18.04;43.34
46638;BME280;32365;46.938;7.390;2023-03-21T15:21:22;95129.34;;;18.41;42.18
46638;BME280;32365;46.938;7.390;2023-03-21T15:23:53;95123.31;;;18.21;42.18
46638;BME280;32365;46.938;7.390;2023-03-21T15:26:23;95137.22;;;17.97;43.30
46638;BME280;32365;46.938;7.390;2023-03-21T15:28:57;95132.91;;;17.58;44.35
46638;BME280;32365;46.938;7.390;2023-03-21T15:31:28;95130.59;;;16.58;47.99
46638;BME280;32365;46.938;7.390;2023-03-21T15:33:56;95127.38;;;17.06;46.92
46638;BME280;32365;46.938;7.390;2023-03-21T15:36:25;95126.03;;;17.38;45.96
46638;BME280;32365;46.938;7.390;2023-03-21T15:38:52;95136.81;;;17.07;46.00
46638;BME280;32365;46.938;7.390;2023-03-21T15:41:27;95135.06;;;16.92;46.99
46638;BME280;32365;46.938;7.390;2023-03-21T15:44:04;95139.41;;;16.22;49.89
46638;BME280;32365;46.938;7.390;2023-03-21T15:46:33;95133.69;;;16.20;50.91
46638;BME280;32365;46.938;7.390;2023-03-21T15:49:09;95138.69;;;16.61;49.48
46638;BME280;32365;46.938;7.390;2023-03-21T15:51:36;95139.19;;;16.64;49.55
46638;BME280;32365;46.938;7.390;2023-03-21T15:54:03;95134.94;;;16.73;48.18
46638;BME280;32365;46.938;7.390;2023-03-21T15:56:32;95132.47;;;16.87;47.19
46638;BME280;32365;46.938;7.390;2023-03-21T15:59:02;95135.72;;;17.13;46.11
46638;BME280;32365;46.938;7.390;2023-03-21T16:01:31;95126.56;;;17.11;45.96
46638;BME280;32365;46.938;7.390;2023-03-21T16:04:04;95130.28;;;17.04;46.23
46638;BME280;32365;46.938;7.390;2023-03-21T16:06:32;95141.69;;;16.79;48.42
46638;BME280;32365;46.938;7.390;2023-03-21T16:09:08;95134.53;;;16.55;48.19
46638;BME280;32365;46.938;7.390;2023-03-21T16:11:38;95142.09;;;16.57;48.61
46638;BME280;32365;46.938;7.390;2023-03-21T16:14:07;95146.44;;;16.27;50.15
46638;BME280;32365;46.938;7.390;2023-03-21T16:16:34;95149.44;;;15.94;51.09
46638;BME280;32365;46.938;7.390;2023-03-21T16:19:02;95144.56;;;16.38;48.86
46638;BME280;32365;46.938;7.390;2023-03-21T16:21:30;95141.00;;;16.18;49.21
46638;BME280;32365;46.938;7.390;2023-03-21T16:23:58;95152.25;;;16.13;50.17
46638;BME280;32365;46.938;7.390;2023-03-21T16:26:27;95151.72;;;16.22;49.53
46638;BME280;32365;46.938;7.390;2023-03-21T16:28:55;95146.34;;;15.87;50.21
46638;BME280;32365;46.938;7.390;2023-03-21T16:31:25;95147.91;;;15.88;49.80
46638;BME280;32365;46.938;7.390;2023-03-21T16:33:52;95150.59;;;15.57;51.10
46638;BME280;32365;46.938;7.390;2023-03-21T16:36:20;95150.91;;;15.24;54.04
46638;BME280;32365;46.938;7.390;2023-03-21T16:38:48;95140.69;;;15.49;52.93
46638;BME280;32365;46.938;7.390;2023-03-21T16:41:17;95149.88;;;15.15;55.23
46638;BME280;32365;46.938;7.390;2023-03-21T16:43:44;95141.78;;;15.32;52.52
46638;BME280;32365;46.938;7.390;2023-03-21T16:46:12;95151.16;;;15.44;52.82
46638;BME280;32365;46.938;7.390;2023-03-21T16:48:40;95154.53;;;15.39;52.38
46638;BME280;32365;46.938;7.390;2023-03-21T16:51:11;95152.72;;;14.98;54.16
46638;BME280;32365;46.938;7.390;2023-03-21T16:53:39;95148.81;;;15.32;53.18
46638;BME280;32365;46.938;7.390;2023-03-21T16:56:10;95151.16;;;15.33;53.23
46638;BME280;32365;46.938;7.390;2023-03-21T16:58:39;95162.88;;;15.36;53.24
46638;BME280;32365;46.938;7.390;2023-03-21T17:01:10;95160.03;;;15.27;53.38
46638;BME280;32365;46.938;7.390;2023-03-21T17:03:37;95170.47;;;15.06;55.44
46638;BME280;32365;46.938;7.390;2023-03-21T17:06:06;95166.81;;;15.07;55.04
46638;BME280;32365;46.938;7.390;2023-03-21T17:08:32;95169.13;;;14.68;57.40
46638;BME280;32365;46.938;7.390;2023-03-21T17:10:59;95168.13;;;14.89;56.87
46638;BME280;32365;46.938;7.390;2023-03-21T17:13:30;95166.00;;;14.71;57.27
46638;BME280;32365;46.938;7.390;2023-03-21T17:15:57;95161.84;;;14.85;55.69
46638;BME280;32365;46.938;7.390;2023-03-21T17:18:23;95167.78;;;14.55;56.82
46638;BME280;32365;46.938;7.390;2023-03-21T17:20:50;95172.16;;;14.39;57.12
46638;BME280;32365;46.938;7.390;2023-03-21T17:23:17;95168.72;;;14.23;57.43
46638;BME280;32365;46.938;7.390;2023-03-21T17:25:44;95167.28;;;13.89;59.17
46638;BME280;32365;46.938;7.390;2023-03-21T17:28:10;95164.59;;;13.68;60.53
46638;BME280;32365;46.938;7.390;2023-03-21T17:30:37;95164.22;;;13.49;59.22
46638;BME280;32365;46.938;7.390;2023-03-21T17:33:04;95166.97;;;13.37;59.98
46638;BME280;32365;46.938;7.390;2023-03-21T17:35:30;95171.91;;;13.34;61.26
46638;BME280;32365;46.938;7.390;2023-03-21T17:37:57;95161.00;;;13.37;59.27
46638;BME280;32365;46.938;7.390;2023-03-21T17:40:27;95168.22;;;13.30;59.85
46638;BME280;32365;46.938;7.390;2023-03-21T17:42:55;95171.53;;;13.20;60.39
46638;BME280;32365;46.938;7.390;2023-03-21T17:45:22;95173.31;;;13.14;61.38
46638;BME280;32365;46.938;7.390;2023-03-21T17:47:49;95173.72;;;13.01;62.45
46638;BME280;32365;46.938;7.390;2023-03-21T17:50:18;95178.22;;;12.78;63.62
46638;BME280;32365;46.938;7.390;2023-03-21T17:52:44;95184.03;;;12.63;64.74
46638;BME280;32365;46.938;7.390;2023-03-21T17:55:11;95181.50;;;12.68;64.93
46638;BME280;32365;46.938;7.390;2023-03-21T17:57:39;95186.59;;;12.58;66.62
46638;BME280;32365;46.938;7.390;2023-03-21T18:00:10;95186.38;;;12.37;65.72
46638;BME280;32365;46.938;7.390;2023-03-21T18:02:39;95186.97;;;12.44;65.75
46638;BME280;32365;46.938;7.390;2023-03-21T18:05:06;95190.19;;;12.29;67.11
46638;BME280;32365;46.938;7.390;2023-03-21T18:07:34;95188.00;;;12.21;66.00
46638;BME280;32365;46.938;7.390;2023-03-21T18:10:01;95182.69;;;12.11;67.13
46638;BME280;32365;46.938;7.390;2023-03-21T18:12:28;95196.50;;;11.94;67.77
46638;BME280;32365;46.938;7.390;2023-03-21T18:14:56;95192.97;;;11.83;68.27
46638;BME280;32365;46.938;7.390;2023-03-21T18:17:23;95191.03;;;11.74;68.82
46638;BME280;32365;46.938;7.390;2023-03-21T18:19:49;95193.88;;;11.72;71.08
46638;BME280;32365;46.938;7.390;2023-03-21T18:22:16;95192.25;;;11.66;70.57
46638;BME280;32365;46.938;7.390;2023-03-21T18:24:44;95201.56;;;11.67;71.11
46638;BME280;32365;46.938;7.390;2023-03-21T18:27:10;95203.94;;;11.68;71.84
46638;BME280;32365;46.938;7.390;2023-03-21T18:29:38;95200.78;;;11.66;71.72
46638;BME280;32365;46.938;7.390;2023-03-21T18:32:06;95205.84;;;11.56;71.72
46638;BME280;32365;46.938;7.390;2023-03-21T18:34:34;95209.03;;;11.63;71.73
46638;BME280;32365;46.938;7.390;2023-03-21T18:37:01;95205.59;;;11.58;71.65
46638;BME280;32365;46.938;7.390;2023-03-21T18:39:28;95216.75;;;11.58;71.71
46638;BME280;32365;46.938;7.390;2023-03-21T18:41:54;95216.28;;;11.78;70.64
46638;BME280;32365;46.938;7.390;2023-03-21T18:44:25;95220.19;;;11.81;70.04
46638;BME280;32365;46.938;7.390;2023-03-21T18:46:53;95215.94;;;11.75;70.17
46638;BME280;32365;46.938;7.390;2023-03-21T18:49:22;95219.03;;;11.72;70.42
46638;BME280;32365;46.938;7.390;2023-03-21T18:51:48;95215.03;;;11.64;70.86
46638;BME280;32365;46.938;7.390;2023-03-21T18:54:15;95217.53;;;11.59;70.98
46638;BME280;32365;46.938;7.390;2023-03-21T18:56:41;95215.13;;;11.35;72.02
46638;BME280;32365;46.938;7.390;2023-03-21T18:59:09;95217.25;;;11.21;72.78
46638;BME280;32365;46.938;7.390;2023-03-21T19:01:37;95210.88;;;11.12;72.43
46638;BME280;32365;46.938;7.390;2023-03-21T19:04:03;95212.06;;;11.04;72.79
46638;BME280;32365;46.938;7.390;2023-03-21T19:06:31;95214.69;;;10.92;73.36
46638;BME280;32365;46.938;7.390;2023-03-21T19:08:58;95206.84;;;10.87;73.69
46638;BME280;32365;46.938;7.390;2023-03-21T19:11:24;95209.28;;;10.93;73.68
46638;BME280;32365;46.938;7.390;2023-03-21T19:13:51;95212.41;;;10.96;73.48
46638;BME280;32365;46.938;7.390;2023-03-21T19:16:19;95211.16;;;10.81;74.21
46638;BME280;32365;46.938;7.390;2023-03-21T19:18:45;95209.97;;;10.89;73.60
46638;BME280;32365;46.938;7.390;2023-03-21T19:21:12;95219.72;;;10.99;72.65
46638;BME280;32365;46.938;7.390;2023-03-21T19:23:40;95220.03;;;11.02;72.18
46638;BME280;32365;46.938;7.390;2023-03-21T19:26:07;95222.88;;;11.01;72.11
46638;BME280;32365;46.938;7.390;2023-03-21T19:28:34;95216.03;;;10.94;72.72
46638;BME280;32365;46.938;7.390;2023-03-21T19:31:04;95221.53;;;10.81;73.09
46638;BME280;32365;46.938;7.390;2023-03-21T19:33:31;95213.94;;;10.62;73.77
46638;BME280;32365;46.938;7.390;2023-03-21T19:35:58;95220.63;;;10.46;75.24
46638;BME280;32365;46.938;7.390;2023-03-21T19:38:25;95228.25;;;10.53;75.16
46638;BME280;32365;46.938;7.390;2023-03-21T19:40:58;95221.41;;;10.47;75.73
46638;BME280;32365;46.938;7.390;2023-03-21T19:43:25;95222.19;;;10.47;75.33
46638;BME280;32365;46.938;7.390;2023-03-21T19:45:52;95222.66;;;10.44;75.57
46638;BME280;32365;46.938;7.390;2023-03-21T19:48:21;95221.44;;;10.35;75.49
46638;BME280;32365;46.938;7.390;2023-03-21T19:50:47;95219.06;;;10.45;74.61
46638;BME280;32365;46.938;7.390;2023-03-21T19:53:14;95224.53;;;10.61;73.95